createdAt,value
2024-03-02T00:00:28.507Z,90.62
2024-03-02T00:02:59.390Z,89.95
2024-03-02T00:05:30.247Z,90.66
2024-03-02T00:08:03.893Z,91.14
2024-03-02T00:10:43.840Z,89.91
2024-03-02T00:13:14.692Z,90.77
2024-03-02T00:15:51.243Z,90.26
2024-03-02T00:18:24.962Z,90.06
2024-03-02T00:20:59.230Z,90.49
2024-03-02T00:23:35.071Z,90.38
2024-03-02T00:26:06.904Z,89.93
2024-03-02T00:28:39.848Z,90.44
2024-03-02T00:31:13.186Z,89.82
2024-03-02T00:33:47.264Z,90.25
2024-03-02T00:36:20.325Z,89.90
2024-03-02T00:38:55.665Z,89.84
2024-03-02T00:41:28.083Z,89.32
2024-03-02T00:44:07.402Z,89.71
2024-03-02T00:46:39.734Z,89.66
2024-03-02T00:49:23.209Z,89.84
2024-03-02T00:51:55.642Z,89.65
2024-03-02T00:54:30.992Z,89.46
2024-03-02T00:57:02.106Z,89.05
2024-03-02T00:59:33.256Z,89.00
2024-03-02T01:02:04.133Z,88.85
2024-03-02T01:04:34.977Z,88.79
2024-03-02T01:07:05.852Z,89.16
2024-03-02T01:09:39.441Z,88.72
2024-03-02T01:12:11.399Z,88.55
2024-03-02T01:14:42.517Z,88.24
2024-03-02T01:17:13.669Z,88.60
2024-03-02T01:19:46.494Z,88.95
2024-03-02T01:22:17.496Z,89.47
2024-03-02T01:24:51.311Z,89.38
2024-03-02T01:27:22.442Z,90.23
2024-03-02T01:29:53.338Z,90.30
2024-03-02T01:32:24.278Z,90.77
2024-03-02T01:34:55.146Z,91.48
2024-03-02T01:37:26.484Z,91.16
2024-03-02T01:40:00.198Z,91.33
2024-03-02T01:42:32.165Z,91.25
2024-03-02T01:45:03.615Z,90.67
2024-03-02T01:47:34.584Z,90.56
2024-03-02T01:50:05.563Z,91.58
2024-03-02T01:52:36.422Z,91.24
2024-03-02T01:55:10.600Z,92.17
2024-03-02T01:57:43.371Z,92.38
2024-03-02T02:00:15.932Z,92.29
2024-03-02T02:02:47.409Z,92.37
2024-03-02T02:05:18.732Z,92.46
2024-03-02T02:07:49.872Z,91.72
2024-03-02T02:10:23.562Z,91.86
2024-03-02T02:12:54.665Z,91.50
2024-03-02T02:15:29.825Z,91.77
2024-03-02T02:18:01.449Z,91.54
2024-03-02T02:20:29.862Z,91.59
2024-03-02T02:23:04.314Z,91.90
2024-03-02T02:25:35.470Z,92.11
2024-03-02T02:28:06.410Z,92.58
2024-03-02T02:30:37.527Z,91.98
2024-03-02T02:33:09.130Z,92.84
2024-03-02T02:35:40.036Z,93.06
2024-03-02T02:38:13.680Z,92.94
2024-03-02T02:40:44.996Z,93.58
2024-03-02T02:43:15.912Z,93.73
2024-03-02T02:45:46.821Z,93.42
2024-03-02T02:48:17.771Z,93.77
2024-03-02T02:50:48.800Z,93.44
2024-03-02T02:53:22.378Z,93.90
2024-03-02T02:55:53.393Z,94.74
2024-03-02T02:58:24.391Z,94.43
2024-03-02T03:00:58.305Z,94.20
2024-03-02T03:03:29.361Z,94.20
2024-03-02T03:06:00.270Z,94.19
2024-03-02T03:08:33.797Z,94.51
2024-03-02T03:11:05.120Z,94.24
2024-03-02T03:13:36.187Z,94.37
2024-03-02T03:16:07.786Z,94.48
2024-03-02T03:18:39.854Z,94.15
2024-03-02T03:21:10.738Z,94.29
2024-03-02T03:23:44.222Z,94.28
2024-03-02T03:26:15.144Z,94.50
2024-03-02T03:28:46.019Z,94.12
2024-03-02T03:31:16.861Z,93.75
2024-03-02T03:33:47.901Z,94.13
2024-03-02T03:36:18.854Z,93.58
2024-03-02T03:38:52.511Z,93.38
2024-03-02T03:41:23.747Z,93.06
2024-03-02T03:43:54.637Z,93.44
2024-03-02T03:46:25.474Z,93.04
2024-03-02T03:48:57.356Z,93.38
2024-03-02T03:51:28.211Z,93.38
2024-03-02T03:54:01.731Z,93.31
2024-03-02T03:56:32.515Z,93.59
2024-03-02T03:59:03.872Z,93.16
2024-03-02T04:01:35.144Z,93.54
2024-03-02T04:04:06.321Z,93.77
2024-03-02T04:06:37.225Z,93.49
2024-03-02T04:09:10.939Z,93.79
2024-03-02T04:11:42.435Z,93.94
2024-03-02T04:14:13.869Z,93.87
2024-03-02T04:16:44.780Z,93.72
2024-03-02T04:19:15.804Z,93.62
2024-03-02T04:21:47.128Z,93.65
2024-03-02T04:24:20.768Z,93.95
2024-03-02T04:26:51.649Z,94.24
2024-03-02T04:29:22.572Z,94.57
2024-03-02T04:31:53.566Z,94.71
2024-03-02T04:34:24.483Z,94.94
2024-03-02T04:36:55.389Z,94.51
2024-03-02T04:39:29.245Z,94.52
2024-03-02T04:42:00.402Z,94.65
2024-03-02T04:44:31.294Z,94.62
2024-03-02T04:47:02.159Z,94.59
2024-03-02T04:49:33.126Z,93.83
2024-03-02T04:52:04.176Z,93.61
2024-03-02T04:54:57.821Z,93.69
2024-03-02T04:57:26.155Z,93.26
2024-03-02T04:59:57.084Z,92.61
2024-03-02T05:02:28.067Z,92.36
2024-03-02T05:04:59.199Z,91.94
2024-03-02T05:07:30.111Z,92.29
2024-03-02T05:10:03.699Z,92.03
2024-03-02T05:12:56.993Z,92.46
2024-03-02T05:15:28.149Z,92.46
2024-03-02T05:17:59.515Z,92.03
2024-03-02T05:20:30.451Z,92.01
2024-03-02T05:23:01.603Z,92.13
2024-03-02T05:25:36.689Z,91.78
2024-03-02T05:28:08.462Z,91.90
2024-03-02T05:30:39.377Z,91.81
2024-03-02T05:33:10.317Z,91.89
2024-03-02T05:35:41.152Z,92.28
2024-03-02T05:38:12.104Z,92.31
2024-03-02T05:40:45.852Z,92.17
2024-03-02T05:43:16.881Z,92.91
2024-03-02T05:45:47.811Z,92.51
2024-03-02T05:48:18.756Z,92.28
2024-03-02T05:50:50.127Z,93.00
2024-03-02T05:53:20.993Z,92.50
2024-03-02T05:55:57.233Z,92.63
2024-03-02T05:58:38.721Z,92.59
2024-03-02T06:01:09.748Z,92.43
2024-03-02T06:03:40.714Z,91.60
2024-03-02T06:06:11.919Z,91.40
2024-03-02T06:08:43.086Z,91.69
2024-03-02T06:11:16.632Z,91.30
2024-03-02T06:13:47.654Z,91.24
2024-03-02T06:16:18.506Z,91.08
2024-03-02T06:18:49.490Z,90.98
2024-03-02T06:21:20.933Z,90.51
2024-03-02T06:23:51.754Z,90.68
2024-03-02T06:26:26.268Z,90.83
2024-03-02T06:28:57.701Z,90.59
2024-03-02T06:31:28.555Z,90.24
2024-03-02T06:33:59.424Z,90.74
2024-03-02T06:36:30.295Z,90.49
2024-03-02T06:39:01.682Z,90.31
2024-03-02T06:41:35.397Z,90.06
2024-03-02T06:44:06.985Z,90.51
2024-03-02T06:46:37.835Z,90.26
2024-03-02T06:49:08.862Z,89.77
2024-03-02T06:51:39.800Z,89.40
2024-03-02T06:54:10.684Z,89.64
2024-03-02T06:56:44.129Z,88.89
2024-03-02T06:59:15.275Z,90.02
2024-03-02T07:01:46.362Z,89.48
2024-03-02T07:04:17.193Z,89.68
2024-03-02T07:06:48.013Z,88.30
2024-03-02T07:09:18.945Z,88.85
2024-03-02T07:11:52.688Z,88.19
2024-03-02T07:14:38.800Z,87.47
2024-03-02T07:17:11.276Z,86.88
2024-03-02T07:19:43.236Z,87.18
2024-03-02T07:22:14.182Z,86.86
2024-03-02T07:24:45.724Z,86.93
2024-03-02T07:27:19.762Z,87.00
2024-03-02T07:29:50.598Z,87.04
2024-03-02T07:32:21.613Z,86.97
2024-03-02T07:34:52.465Z,86.12
2024-03-02T07:37:23.367Z,86.18
2024-03-02T07:39:54.768Z,86.43
2024-03-02T07:42:28.446Z,85.70
2024-03-02T07:44:59.394Z,85.23
2024-03-02T07:47:30.282Z,85.39
2024-03-02T07:50:01.148Z,84.32
2024-03-02T07:52:31.961Z,85.06
2024-03-02T07:55:02.812Z,84.85
2024-03-02T07:57:36.924Z,85.39
2024-03-02T08:00:08.948Z,84.87
2024-03-02T08:02:44.150Z,85.39
2024-03-02T08:05:15.056Z,84.74
2024-03-02T08:07:46.115Z,85.86
2024-03-02T08:10:17.117Z,85.75
2024-03-02T08:12:50.730Z,85.03
2024-03-02T08:15:21.720Z,84.20
2024-03-02T08:17:52.732Z,84.85
2024-03-02T08:20:23.970Z,85.41
2024-03-02T08:22:56.400Z,84.79
2024-03-02T08:25:27.355Z,84.88
2024-03-02T08:28:01.154Z,84.89
2024-03-02T08:30:32.055Z,83.80
2024-03-02T08:33:02.960Z,84.25
2024-03-02T08:35:37.162Z,84.15
2024-03-02T08:38:08.777Z,83.65
2024-03-02T08:40:39.910Z,84.51
2024-03-02T08:43:14.074Z,84.01
2024-03-02T08:45:45.248Z,84.21
2024-03-02T08:48:16.141Z,83.86
2024-03-02T08:50:46.972Z,83.52
2024-03-02T08:53:19.939Z,82.74
2024-03-02T08:55:51.035Z,82.38
2024-03-02T08:58:24.559Z,82.20
2024-03-02T09:00:55.951Z,81.90
2024-03-02T09:03:27.006Z,80.36
2024-03-02T09:05:59.213Z,80.52
2024-03-02T09:08:30.479Z,79.21
2024-03-02T09:11:01.883Z,79.21
2024-03-02T09:13:35.866Z,79.38
2024-03-02T09:16:07.105Z,79.11
2024-03-02T09:18:38.064Z,79.25
2024-03-02T09:21:09.291Z,78.10
2024-03-02T09:23:41.631Z,77.25
2024-03-02T09:26:12.444Z,76.26
2024-03-02T09:28:47.479Z,76.24
2024-03-02T09:31:18.486Z,77.16
2024-03-02T09:33:49.348Z,79.08
2024-03-02T09:36:24.006Z,78.51
2024-03-02T09:38:54.869Z,79.25
2024-03-02T09:41:26.071Z,79.51
2024-03-02T09:44:00.061Z,78.88
2024-03-02T09:46:30.523Z,77.99
2024-03-02T09:49:01.810Z,77.24
2024-03-02T09:51:32.878Z,78.08
2024-03-02T09:54:13.077Z,77.83
2024-03-02T09:56:52.388Z,77.08
2024-03-02T09:59:26.089Z,77.28
2024-03-02T10:02:01.953Z,77.93
2024-03-02T10:04:34.111Z,77.23
2024-03-02T10:07:16.072Z,76.50
2024-03-02T10:09:48.944Z,76.29
2024-03-02T10:12:20.937Z,76.04
2024-03-02T10:15:08.960Z,76.32
2024-03-02T10:17:40.056Z,76.85
2024-03-02T10:20:27.621Z,76.39
2024-03-02T10:22:58.504Z,77.12
2024-03-02T10:25:43.526Z,77.54
2024-03-02T10:28:22.359Z,77.66
2024-03-02T10:30:56.205Z,76.38
2024-03-02T10:33:28.602Z,76.79
2024-03-02T10:36:00.572Z,77.29
2024-03-02T10:38:32.032Z,77.66
2024-03-02T10:41:05.170Z,77.65
2024-03-02T10:43:36.807Z,78.17
2024-03-02T10:46:10.509Z,77.39
2024-03-02T10:48:44.616Z,77.74
2024-03-02T10:51:16.254Z,77.49
2024-03-02T10:53:47.175Z,76.83
2024-03-02T10:56:26.898Z,77.38
2024-03-02T10:59:05.416Z,76.97
2024-03-02T11:01:43.106Z,77.25
2024-03-02T11:04:16.633Z,76.55
2024-03-02T11:06:52.780Z,77.06
2024-03-02T11:09:26.227Z,77.56
2024-03-02T11:12:10.003Z,77.29
2024-03-02T11:14:44.772Z,76.50
2024-03-02T11:17:20.019Z,76.29
2024-03-02T11:19:51.622Z,76.65
2024-03-02T11:22:23.223Z,75.98
2024-03-02T11:24:54.719Z,74.13
2024-03-02T11:28:05.736Z,76.41
2024-03-02T11:30:55.484Z,77.43
2024-03-02T11:33:32.617Z,77.63
2024-03-02T11:36:04.996Z,77.24
2024-03-02T11:38:37.355Z,76.48
2024-03-02T11:41:12.660Z,76.65
2024-03-02T11:43:45.655Z,75.99
2024-03-02T11:46:16.880Z,76.14
2024-03-02T11:48:51.168Z,75.66
2024-03-02T11:51:22.064Z,75.51
2024-03-02T11:53:54.343Z,76.23
2024-03-02T11:56:26.181Z,75.19
2024-03-02T11:58:59.165Z,75.04
2024-03-02T12:01:30.335Z,74.75
2024-03-02T12:04:04.650Z,74.14
2024-03-02T12:06:35.629Z,74.87
2024-03-02T12:09:08.002Z,74.94
2024-03-02T12:11:38.990Z,74.42
2024-03-02T12:14:17.126Z,74.28
2024-03-02T12:16:49.107Z,74.19
2024-03-02T12:19:22.568Z,74.72
2024-03-02T12:21:53.465Z,75.98
2024-03-02T12:24:25.611Z,75.94
2024-03-02T12:26:57.635Z,75.88
2024-03-02T12:29:28.552Z,76.80
2024-03-02T12:31:59.401Z,76.48
2024-03-02T12:34:33.054Z,76.39
2024-03-02T12:37:03.704Z,76.92
2024-03-02T12:39:34.996Z,77.15
2024-03-02T12:42:09.233Z,77.35
2024-03-02T12:44:40.411Z,77.80
2024-03-02T12:47:14.072Z,77.97
2024-03-02T12:49:50.837Z,78.42
2024-03-02T12:52:22.923Z,77.95
2024-03-02T12:54:59.019Z,78.17
2024-03-02T12:57:31.328Z,78.82
2024-03-02T13:00:03.606Z,78.95
2024-03-02T13:02:35.456Z,78.14
2024-03-02T13:05:12.461Z,77.07
2024-03-02T13:07:43.947Z,76.39
2024-03-02T13:10:16.843Z,76.45
2024-03-02T13:12:49.732Z,77.16
2024-03-02T13:15:21.286Z,76.24
2024-03-02T13:18:03.117Z,76.53
2024-03-02T13:20:46.671Z,75.26
2024-03-02T13:23:22.094Z,75.84
2024-03-02T13:26:09.077Z,75.32
2024-03-02T13:28:58.221Z,75.10
2024-03-02T13:31:50.694Z,75.03
2024-03-02T13:34:37.395Z,75.63
2024-03-02T13:37:16.996Z,75.28
2024-03-02T13:40:18.952Z,75.63
2024-03-02T13:42:59.062Z,76.05
2024-03-02T13:45:47.324Z,75.83
2024-03-02T13:48:25.040Z,75.49
2024-03-02T13:50:56.272Z,76.23
2024-03-02T13:53:34.088Z,76.08
2024-03-02T13:56:08.173Z,76.41
2024-03-02T13:58:49.022Z,77.21
2024-03-02T14:01:21.897Z,76.66
2024-03-02T14:03:55.650Z,76.98
2024-03-02T14:06:30.463Z,76.92
2024-03-02T14:09:07.366Z,76.50
2024-03-02T14:11:39.159Z,76.45
2024-03-02T14:14:10.533Z,75.33
2024-03-02T14:16:42.610Z,76.20
2024-03-02T14:19:15.383Z,76.00
2024-03-02T14:21:47.290Z,75.86
2024-03-02T14:24:25.394Z,75.38
2024-03-02T14:27:05.586Z,76.21
2024-03-02T14:29:41.984Z,76.65
2024-03-02T14:32:13.196Z,76.90
2024-03-02T14:34:44.391Z,77.00
2024-03-02T14:37:15.481Z,77.08
2024-03-02T14:39:49.538Z,77.67
2024-03-02T14:42:20.829Z,78.13
2024-03-02T14:44:52.166Z,78.71
2024-03-02T14:47:26.043Z,78.37
2024-03-02T14:49:57.436Z,78.19
2024-03-02T14:52:28.851Z,79.02
2024-03-02T14:55:04.739Z,78.84
2024-03-02T14:57:35.932Z,78.08
2024-03-02T15:00:09.134Z,78.75
2024-03-02T15:02:40.681Z,79.64
2024-03-02T15:05:12.632Z,79.49
2024-03-02T15:07:43.634Z,79.12
2024-03-02T15:10:18.405Z,79.97
2024-03-02T15:12:49.411Z,79.82
2024-03-02T15:15:21.559Z,79.45
2024-03-02T15:17:53.789Z,79.53
2024-03-02T15:20:25.476Z,79.60
2024-03-02T15:22:56.588Z,78.90
2024-03-02T15:25:30.363Z,78.75
2024-03-02T15:28:01.582Z,79.13
2024-03-02T15:30:33.390Z,79.05
2024-03-02T15:33:10.104Z,79.41
2024-03-02T15:35:41.578Z,80.03
2024-03-02T15:38:22.079Z,79.64
2024-03-02T15:41:03.989Z,79.44
2024-03-02T15:43:37.501Z,79.56
2024-03-02T15:46:09.727Z,79.96
2024-03-02T15:48:42.178Z,80.62
2024-03-02T15:51:20.497Z,80.72
2024-03-02T15:54:24.232Z,80.59
2024-03-02T15:57:24.714Z,80.56
2024-03-02T16:00:11.503Z,80.87
2024-03-02T16:02:44.313Z,81.11
2024-03-02T16:05:23.526Z,80.96
2024-03-02T16:08:01.064Z,81.68
2024-03-02T16:10:34.384Z,82.49
2024-03-02T16:13:16.902Z,82.48
2024-03-02T16:16:09.773Z,82.81
2024-03-02T16:18:44.777Z,83.19
2024-03-02T16:21:16.668Z,83.08
2024-03-02T16:23:48.097Z,83.90
2024-03-02T16:26:19.042Z,84.48
2024-03-02T16:28:52.673Z,84.36
2024-03-02T16:31:23.738Z,84.33
2024-03-02T16:33:55.113Z,84.85
2024-03-02T16:36:29.394Z,85.00
2024-03-02T16:39:00.439Z,84.90
2024-03-02T16:41:34.630Z,85.41
2024-03-02T16:44:08.705Z,84.69
2024-03-02T16:46:54.757Z,84.48
2024-03-02T16:49:31.296Z,84.67
2024-03-02T16:52:04.594Z,84.74
2024-03-02T16:54:36.012Z,85.33
2024-03-02T16:57:07.942Z,84.80
2024-03-02T16:59:41.840Z,84.54
2024-03-02T17:02:12.816Z,84.88
2024-03-02T17:04:44.411Z,84.60
2024-03-02T17:07:16.275Z,85.17
2024-03-02T17:09:47.606Z,84.42
2024-03-02T17:12:18.914Z,84.28
2024-03-02T17:14:53.108Z,84.37
2024-03-02T17:17:27.488Z,84.03
2024-03-02T17:19:59.135Z,83.70
2024-03-02T17:22:30.113Z,83.70
2024-03-02T17:25:01.190Z,83.31
2024-03-02T17:27:32.550Z,82.87
2024-03-02T17:30:07.286Z,83.03
2024-03-02T17:32:42.734Z,82.29
2024-03-02T17:35:13.827Z,82.03
2024-03-02T17:37:47.015Z,81.25
2024-03-02T17:40:24.068Z,81.01
2024-03-02T17:42:56.993Z,80.71
2024-03-02T17:45:30.520Z,80.15
2024-03-02T17:48:01.597Z,80.31
2024-03-02T17:50:33.732Z,79.77
2024-03-02T17:53:07.358Z,80.13
2024-03-02T17:55:38.687Z,79.52
2024-03-02T17:58:09.698Z,79.50
2024-03-02T18:00:43.522Z,78.84
2024-03-02T18:03:14.650Z,79.64
2024-03-02T18:05:45.572Z,79.23
2024-03-02T18:08:17.303Z,79.22
2024-03-02T18:10:49.037Z,79.02
2024-03-02T18:13:20.177Z,79.42
2024-03-02T18:15:54.501Z,78.83
2024-03-02T18:18:26.850Z,78.73
2024-03-02T18:20:58.240Z,78.93
2024-03-02T18:23:30.200Z,78.85
2024-03-02T18:26:01.342Z,78.16
2024-03-02T18:28:32.475Z,78.03
2024-03-02T18:31:06.574Z,78.50
2024-03-02T18:33:38.041Z,78.31
2024-03-02T18:36:11.023Z,78.60
2024-03-02T18:38:45.655Z,78.55
2024-03-02T18:41:18.022Z,78.58
2024-03-02T18:43:49.417Z,77.69
2024-03-02T18:46:23.477Z,78.05
2024-03-02T18:48:52.433Z,78.24
2024-03-02T18:51:26.763Z,77.82
2024-03-02T18:53:57.829Z,78.05
2024-03-02T18:56:28.819Z,77.80
2024-03-02T18:58:59.935Z,78.20
2024-03-02T19:01:33.663Z,78.12
2024-03-02T19:04:05.782Z,77.94
2024-03-02T19:06:36.777Z,77.49
2024-03-02T19:09:08.091Z,77.84
2024-03-02T19:11:39.414Z,77.62
2024-03-02T19:14:12.071Z,77.72
2024-03-02T19:16:45.979Z,77.44
2024-03-02T19:19:17.012Z,77.84
2024-03-02T19:21:55.719Z,77.92
2024-03-02T19:24:31.528Z,77.72
2024-03-02T19:27:02.497Z,77.50
2024-03-02T19:29:33.594Z,77.67
2024-03-02T19:32:11.939Z,77.97
2024-03-02T19:34:43.710Z,77.91
2024-03-02T19:37:14.766Z,77.90
2024-03-02T19:39:46.185Z,78.13
2024-03-02T19:42:17.294Z,78.47
2024-03-02T19:44:48.127Z,78.40
2024-03-02T19:47:23.316Z,78.31
2024-03-02T19:49:54.372Z,78.04
2024-03-02T19:52:26.841Z,78.62
2024-03-02T19:54:58.172Z,78.33
2024-03-02T19:57:30.683Z,78.60
2024-03-02T20:00:01.555Z,78.51
2024-03-02T20:02:35.152Z,78.77
2024-03-02T20:05:06.123Z,78.97
2024-03-02T20:07:37.245Z,79.11
2024-03-02T20:10:09.618Z,79.62
2024-03-02T20:12:41.259Z,79.07
2024-03-02T20:15:14.249Z,79.58
2024-03-02T20:17:47.847Z,79.51
2024-03-02T20:20:19.232Z,79.52
2024-03-02T20:22:51.579Z,79.69
2024-03-02T20:25:22.504Z,79.34
2024-03-02T20:27:53.523Z,79.83
2024-03-02T20:30:24.650Z,79.73
2024-03-02T20:32:58.566Z,79.43
2024-03-02T20:35:29.660Z,79.62
2024-03-02T20:38:02.268Z,78.78
2024-03-02T20:40:35.004Z,79.04
2024-03-02T20:43:11.865Z,78.79
2024-03-02T20:45:43.224Z,79.32
2024-03-02T20:48:21.611Z,79.03
2024-03-02T20:50:53.029Z,79.04
2024-03-02T20:53:34.721Z,79.09
2024-03-02T20:56:32.142Z,79.54
2024-03-02T20:59:18.697Z,79.54
2024-03-02T21:01:51.851Z,79.55
2024-03-02T21:04:28.004Z,79.85
2024-03-02T21:06:59.339Z,79.75
2024-03-02T21:09:30.667Z,80.42
2024-03-02T21:12:06.538Z,80.12
2024-03-02T21:14:41.373Z,80.70
2024-03-02T21:17:12.971Z,80.58
2024-03-02T21:19:50.037Z,80.58
2024-03-02T21:22:23.213Z,80.36
2024-03-02T21:24:54.824Z,80.20
2024-03-02T21:27:40.966Z,80.22
2024-03-02T21:30:13.548Z,80.75
2024-03-02T21:32:50.026Z,80.87
2024-03-02T21:35:34.421Z,80.54
2024-03-02T21:38:07.615Z,80.26
2024-03-02T21:40:38.662Z,80.92
2024-03-02T21:43:09.803Z,81.00
2024-03-02T21:45:40.799Z,80.92
2024-03-02T21:48:12.275Z,81.14
2024-03-02T21:50:46.207Z,81.40
2024-03-02T21:53:17.075Z,80.85
2024-03-02T21:55:48.004Z,81.54
2024-03-02T21:58:18.939Z,82.09
2024-03-02T22:00:50.278Z,81.53
2024-03-02T22:03:21.322Z,81.96
2024-03-02T22:05:54.796Z,82.05
2024-03-02T22:08:28.741Z,81.85
2024-03-02T22:11:02.138Z,82.14
2024-03-02T22:13:33.225Z,82.50
2024-03-02T22:16:04.136Z,82.28
2024-03-02T22:18:35.031Z,81.87
2024-03-02T22:21:08.819Z,82.25
2024-03-02T22:23:42.024Z,82.38
2024-03-02T22:26:12.942Z,82.14
2024-03-02T22:28:44.452Z,82.26
2024-03-02T22:31:15.441Z,82.47
2024-03-02T22:33:46.378Z,82.32
2024-03-02T22:36:19.828Z,82.42
2024-03-02T22:38:50.637Z,82.76
2024-03-02T22:41:21.523Z,83.11
2024-03-02T22:43:52.461Z,82.92
2024-03-02T22:46:23.618Z,82.94
2024-03-02T22:48:55.694Z,83.14
2024-03-02T22:51:30.238Z,82.89
2024-03-02T22:54:01.138Z,83.02
2024-03-02T22:56:32.269Z,83.25
2024-03-02T22:59:03.723Z,83.06
2024-03-02T23:01:36.115Z,82.74
2024-03-02T23:04:08.557Z,82.86
2024-03-02T23:06:42.232Z,83.04
2024-03-02T23:09:13.184Z,82.99
2024-03-02T23:11:44.200Z,83.42
2024-03-02T23:14:15.061Z,83.23
2024-03-02T23:16:46.619Z,83.50
2024-03-02T23:19:22.178Z,83.46
2024-03-02T23:21:56.045Z,83.27
2024-03-02T23:24:26.878Z,83.41
2024-03-02T23:26:57.768Z,83.39
2024-03-02T23:29:28.644Z,83.35
2024-03-02T23:31:59.811Z,83.33
2024-03-02T23:34:31.235Z,83.36
2024-03-02T23:37:04.969Z,83.28
2024-03-02T23:40:11.529Z,82.76
2024-03-02T23:42:42.572Z,82.82
2024-03-02T23:45:14.266Z,82.59
2024-03-02T23:47:45.264Z,82.37
2024-03-02T23:50:16.225Z,82.82
2024-03-02T23:52:49.684Z,83.04
2024-03-02T23:55:20.834Z,82.66
2024-03-02T23:57:51.977Z,82.55
